Ryoho Maru No.2 — JD2964 — position and weather

sailwx.info

Track history (hours):
 
Tides and Currents Weather Stations Pressure Air Temp Water Temp Dewpoint Dewpoint Depression Visibility Wind Speed Wind Dir Waves Ship Positions

Ryoho Maru No.2

Last reported at 2016-Jun-23 17:33 UTC. Time now 2016-Jun-30 12:20 UTC.
Position N 35°39' E 140°54'.

Length 57 m; draft 4 m.

Type: Tanker. MMSI: 431001062.

Date/timePositionNaut miles runAvg speedWind from/ knotsBaromVisibWave heightAir tempDewpointWater temp
2016-Jun-23 17:33N 35°39' E 140°54'8 8.1
2016-Jun-23 16:30N 35°32' E 140°48'9 9.1
2016-Jun-23 15:33N 35°25' E 140°42'12 9.2
2016-Jun-23 14:14N 35°15' E 140°33'18 9.4
2016-Jun-23 12:21N 35°03' E 140°17'7 8.9
2016-Jun-23 11:33N 34°59' E 140°10'9 8.7
2016-Jun-23 10:32N 34°55' E 140°01'12 8.2
2016-Jun-23 09:08N 34°55' E 139°47'6 9.5
2016-Jun-23 08:33N 34°60' E 139°44'1010.0
2016-Jun-23 07:33N 35°10' E 139°46'17 8.3
2016-Jun-23 05:34N 35°26' E 139°46'9 9.2
2016-Jun-23 04:34N 35°29' E 139°57'4 3.5
2016-Jun-23 03:32N 35°28' E 140°01'0 0.0
2016-Jun-23 02:26N 35°28' E 140°01'0 0.0
2016-Jun-23 01:32N 35°28' E 140°01'0 0.0
2016-Jun-23 00:32N 35°28' E 140°01'0 0.0
2016-Jun-22 23:32N 35°28' E 140°01'1 0.6
2016-Jun-22 22:33N 35°29' E 140°01'1 0.8
2016-Jun-22 21:24N 35°29' E 139°60'0 0.1
2016-Jun-22 20:33N 35°29' E 139°60'0 0.0
2016-Jun-22 19:33N 35°29' E 139°60'0 0.0
2016-Jun-22 18:15N 35°29' E 139°60'0 0.0
2016-Jun-22 17:33N 35°29' E 139°60'0 0.1
2016-Jun-22 16:33N 35°29' E 139°60'0 0.0
2016-Jun-22 15:33N 35°29' E 139°60'0 0.0
2016-Jun-22 14:09N 35°29' E 139°60'0 0.0
2016-Jun-22 13:33N 35°29' E 139°60'0 0.0
2016-Jun-22 12:33N 35°29' E 139°60'0 0.0
2016-Jun-22 11:33N 35°29' E 139°60'0 0.0
2016-Jun-22 10:21N 35°29' E 139°60'0 0.0
2016-Jun-22 09:27N 35°29' E 139°60'0 0.0
2016-Jun-22 08:33N 35°29' E 139°60'0 0.0
2016-Jun-22 07:33N 35°29' E 139°60'0 0.0
2016-Jun-22 06:27N 35°29' E 139°60'0 0.0
2016-Jun-22 05:33N 35°29' E 139°60'0 0.0
2016-Jun-22 04:33N 35°29' E 139°60'0 0.0
2016-Jun-22 03:27N 35°29' E 139°60'0 0.0
2016-Jun-22 02:21N 35°29' E 139°60'0 0.0
2016-Jun-22 01:33N 35°29' E 139°60'0 0.0
2016-Jun-22 00:27N 35°29' E 139°60'0 0.0
2016-Jun-21 23:33N 35°29' E 139°60'0 0.0
2016-Jun-21 22:33N 35°29' E 139°60'0 0.0
2016-Jun-21 21:33N 35°29' E 139°60'0 0.0
2016-Jun-21 20:21N 35°29' E 139°60'0 0.0
2016-Jun-21 19:33N 35°29' E 139°60'0 0.0
2016-Jun-21 18:33N 35°29' E 139°60'0 0.0
2016-Jun-21 17:33N 35°29' E 139°60'0 0.0
2016-Jun-21 16:33N 35°29' E 139°60'0 0.0
2016-Jun-21 15:33N 35°29' E 139°60'0 0.0
2016-Jun-21 14:27N 35°29' E 139°60'0 0.0
2016-Jun-21 13:33N 35°29' E 139°60'0 0.0
2016-Jun-21 12:27N 35°29' E 139°60'0 0.0
2016-Jun-21 11:15N 35°29' E 139°60'0 0.0
2016-Jun-21 10:27N 35°29' E 139°60'0 0.0
2016-Jun-21 09:33N 35°29' E 139°60'0 0.0
2016-Jun-21 08:33N 35°29' E 139°60'0 0.0
2016-Jun-21 07:27N 35°29' E 139°60'0 0.0
2016-Jun-21 05:33N 35°29' E 139°60'0 0.0
2016-Jun-21 04:33N 35°29' E 139°60'5 5.3
2016-Jun-21 03:33N 35°29' E 139°53'7 6.4
2016-Jun-21 02:29N 35°32' E 139°45'0 0.0
2016-Jun-21 01:32N 35°32' E 139°45'0 0.0
2016-Jun-21 00:29N 35°32' E 139°45'1 0.8
2016-Jun-20 23:33N 35°31' E 139°46'2 1.7
2016-Jun-20 22:32N 35°29' E 139°47'0 0.0
2016-Jun-20 21:32N 35°29' E 139°47'0 0.0
2016-Jun-20 20:32N 35°29' E 139°47'0 0.0
2016-Jun-20 19:32N 35°29' E 139°47'0 0.0
2016-Jun-20 18:32N 35°29' E 139°47'0 0.0
2016-Jun-20 17:29N 35°29' E 139°47'0 0.1
2016-Jun-20 16:32N 35°29' E 139°47'0 0.1
2016-Jun-20 15:32N 35°29' E 139°47'0 0.0
2016-Jun-20 14:32N 35°29' E 139°47'0 0.1
2016-Jun-20 13:32N 35°29' E 139°47'0 0.0
2016-Jun-20 12:32N 35°29' E 139°47'0 0.1
2016-Jun-20 11:32N 35°29' E 139°47'0 0.0
2016-Jun-20 10:32N 35°29' E 139°47'0 0.0
2016-Jun-20 09:32N 35°29' E 139°47'0 0.0
2016-Jun-20 08:32N 35°29' E 139°47'0 0.0
2016-Jun-20 07:32N 35°29' E 139°47'0 0.0
2016-Jun-20 06:29N 35°29' E 139°47'0 0.0
2016-Jun-20 05:32N 35°29' E 139°47'0 0.0
2016-Jun-20 04:32N 35°29' E 139°47'0 0.0
2016-Jun-20 03:32N 35°29' E 139°47'0 0.1
2016-Jun-20 02:32N 35°29' E 139°47'0 0.0
2016-Jun-20 01:32N 35°29' E 139°47'0 0.0
2016-Jun-20 00:32N 35°29' E 139°47'0 0.0
2016-Jun-19 23:32N 35°29' E 139°47'0 0.1
2016-Jun-19 22:32N 35°29' E 139°47'0 0.1
2016-Jun-19 21:29N 35°29' E 139°47'0 0.1
2016-Jun-19 20:32N 35°29' E 139°47'0 0.0
2016-Jun-19 19:32N 35°29' E 139°47'0 0.0
2016-Jun-19 18:32N 35°29' E 139°47'0 0.0
2016-Jun-19 17:32N 35°29' E 139°47'0 0.0
2016-Jun-19 16:32N 35°29' E 139°47'0 0.0
2016-Jun-19 15:32N 35°29' E 139°47'0 0.0
2016-Jun-19 14:32N 35°29' E 139°47'0 0.0
2016-Jun-19 13:32N 35°29' E 139°47'0 0.0
2016-Jun-19 12:32N 35°29' E 139°47'0 0.0
2016-Jun-19 11:32N 35°29' E 139°47'0 0.0
2016-Jun-19 10:32N 35°29' E 139°47'0 0.0
2016-Jun-19 09:32N 35°29' E 139°47'0 0.0
2016-Jun-19 08:32N 35°29' E 139°47'0 0.0
2016-Jun-19 07:32N 35°29' E 139°47'0 0.0
2016-Jun-19 06:32N 35°29' E 139°47'0 0.0
2016-Jun-19 05:32N 35°29' E 139°47'0 0.0
2016-Jun-19 04:32N 35°29' E 139°47'0 0.0
2016-Jun-19 03:32N 35°29' E 139°47'0 0.0
2016-Jun-19 02:32N 35°29' E 139°47'0 0.0
2016-Jun-19 01:29N 35°29' E 139°47'0 0.0
2016-Jun-19 00:32N 35°29' E 139°47'0 0.0
2016-Jun-18 23:32N 35°29' E 139°47'0 0.0
2016-Jun-18 22:32N 35°29' E 139°47'0 0.0
2016-Jun-18 21:32N 35°29' E 139°47'0 0.0
2016-Jun-18 20:32N 35°29' E 139°47'0 0.0
2016-Jun-18 19:32N 35°29' E 139°47'0 0.0
2016-Jun-18 18:29N 35°29' E 139°47'0 0.0
2016-Jun-18 17:32N 35°29' E 139°47'0 0.0
2016-Jun-18 16:32N 35°29' E 139°47'0 0.0
2016-Jun-18 15:32N 35°29' E 139°47'0 0.0
2016-Jun-18 14:32N 35°29' E 139°47'0 0.0
2016-Jun-18 13:32N 35°29' E 139°47'0 0.0
2016-Jun-18 12:32N 35°29' E 139°47'0 0.0
2016-Jun-18 11:32N 35°29' E 139°47'0 0.0
2016-Jun-18 10:32N 35°29' E 139°47'0 0.0
2016-Jun-18 09:32N 35°29' E 139°47'0 0.0
2016-Jun-18 08:32N 35°29' E 139°47'0 0.0
2016-Jun-18 07:32N 35°29' E 139°47'0 0.0
2016-Jun-18 06:32N 35°29' E 139°47'0 0.0
2016-Jun-18 05:32N 35°29' E 139°47'0 0.0
2016-Jun-18 04:32N 35°29' E 139°47'0 0.0
2016-Jun-18 03:32N 35°29' E 139°47'8 8.3
2016-Jun-18 02:33N 35°21' E 139°45'1010.1
2016-Jun-18 01:34N 35°12' E 139°47'1010.4
2016-Jun-18 00:34N 35°01' E 139°45'15 7.4
2016-Jun-17 22:33N 34°55' E 140°01'1010.1
2016-Jun-17 21:33N 35°01' E 140°11'10 9.9
2016-Jun-17 20:34N 35°06' E 140°21'9 9.1
2016-Jun-17 19:33N 35°13' E 140°28'1010.3
2016-Jun-17 18:33N 35°21' E 140°36'1110.5
2016-Jun-17 17:33N 35°30' E 140°44'1010.1
2016-Jun-17 16:34N 35°38' E 140°51'10 9.8
2016-Jun-17 15:33N 35°47' E 140°55'1010.1
2016-Jun-17 14:33N 35°57' E 140°56'10 9.8
2016-Jun-17 13:34N 36°07' E 140°57'10 9.8
2016-Jun-17 12:32N 36°17' E 140°58'  
Track history (hours):
 
Tides and Currents Weather Stations Pressure Air Temp Water Temp Dewpoint Dewpoint Depression Visibility Wind Speed Wind Dir Waves Ship Positions

Ryoho Maru No.2

Last reported at 2016-Jun-23 17:33 UTC. Time now 2016-Jun-30 12:20 UTC.
Position N 35°39' E 140°54'.

Length 57 m; draft 4 m.

Type: Tanker. MMSI: 431001062.

Date/timePositionNaut miles runAvg speedWind from/ knotsBaromVisibWave heightAir tempDewpointWater temp
2016-Jun-23 17:33N 35°39' E 140°54'8 8.1
2016-Jun-23 16:30N 35°32' E 140°48'9 9.1
2016-Jun-23 15:33N 35°25' E 140°42'12 9.2
2016-Jun-23 14:14N 35°15' E 140°33'18 9.4
2016-Jun-23 12:21N 35°03' E 140°17'7 8.9
2016-Jun-23 11:33N 34°59' E 140°10'9 8.7
2016-Jun-23 10:32N 34°55' E 140°01'12 8.2
2016-Jun-23 09:08N 34°55' E 139°47'6 9.5
2016-Jun-23 08:33N 34°60' E 139°44'1010.0
2016-Jun-23 07:33N 35°10' E 139°46'17 8.3
2016-Jun-23 05:34N 35°26' E 139°46'9 9.2
2016-Jun-23 04:34N 35°29' E 139°57'4 3.5
2016-Jun-23 03:32N 35°28' E 140°01'0 0.0
2016-Jun-23 02:26N 35°28' E 140°01'0 0.0
2016-Jun-23 01:32N 35°28' E 140°01'0 0.0
2016-Jun-23 00:32N 35°28' E 140°01'0 0.0
2016-Jun-22 23:32N 35°28' E 140°01'1 0.6
2016-Jun-22 22:33N 35°29' E 140°01'1 0.8
2016-Jun-22 21:24N 35°29' E 139°60'0 0.1
2016-Jun-22 20:33N 35°29' E 139°60'0 0.0
2016-Jun-22 19:33N 35°29' E 139°60'0 0.0
2016-Jun-22 18:15N 35°29' E 139°60'0 0.0
2016-Jun-22 17:33N 35°29' E 139°60'0 0.1
2016-Jun-22 16:33N 35°29' E 139°60'0 0.0
2016-Jun-22 15:33N 35°29' E 139°60'0 0.0
2016-Jun-22 14:09N 35°29' E 139°60'0 0.0
2016-Jun-22 13:33N 35°29' E 139°60'0 0.0
2016-Jun-22 12:33N 35°29' E 139°60'0 0.0
2016-Jun-22 11:33N 35°29' E 139°60'0 0.0
2016-Jun-22 10:21N 35°29' E 139°60'0 0.0
2016-Jun-22 09:27N 35°29' E 139°60'0 0.0
2016-Jun-22 08:33N 35°29' E 139°60'0 0.0
2016-Jun-22 07:33N 35°29' E 139°60'0 0.0
2016-Jun-22 06:27N 35°29' E 139°60'0 0.0
2016-Jun-22 05:33N 35°29' E 139°60'0 0.0
2016-Jun-22 04:33N 35°29' E 139°60'0 0.0
2016-Jun-22 03:27N 35°29' E 139°60'0 0.0
2016-Jun-22 02:21N 35°29' E 139°60'0 0.0
2016-Jun-22 01:33N 35°29' E 139°60'0 0.0
2016-Jun-22 00:27N 35°29' E 139°60'0 0.0
2016-Jun-21 23:33N 35°29' E 139°60'0 0.0
2016-Jun-21 22:33N 35°29' E 139°60'0 0.0
2016-Jun-21 21:33N 35°29' E 139°60'0 0.0
2016-Jun-21 20:21N 35°29' E 139°60'0 0.0
2016-Jun-21 19:33N 35°29' E 139°60'0 0.0
2016-Jun-21 18:33N 35°29' E 139°60'0 0.0
2016-Jun-21 17:33N 35°29' E 139°60'0 0.0
2016-Jun-21 16:33N 35°29' E 139°60'0 0.0
2016-Jun-21 15:33N 35°29' E 139°60'0 0.0
2016-Jun-21 14:27N 35°29' E 139°60'0 0.0
2016-Jun-21 13:33N 35°29' E 139°60'0 0.0
2016-Jun-21 12:27N 35°29' E 139°60'0 0.0
2016-Jun-21 11:15N 35°29' E 139°60'0 0.0
2016-Jun-21 10:27N 35°29' E 139°60'0 0.0
2016-Jun-21 09:33N 35°29' E 139°60'0 0.0
2016-Jun-21 08:33N 35°29' E 139°60'0 0.0
2016-Jun-21 07:27N 35°29' E 139°60'0 0.0
2016-Jun-21 05:33N 35°29' E 139°60'0 0.0
2016-Jun-21 04:33N 35°29' E 139°60'5 5.3
2016-Jun-21 03:33N 35°29' E 139°53'7 6.4
2016-Jun-21 02:29N 35°32' E 139°45'0 0.0
2016-Jun-21 01:32N 35°32' E 139°45'0 0.0
2016-Jun-21 00:29N 35°32' E 139°45'1 0.8
2016-Jun-20 23:33N 35°31' E 139°46'2 1.7
2016-Jun-20 22:32N 35°29' E 139°47'0 0.0
2016-Jun-20 21:32N 35°29' E 139°47'0 0.0
2016-Jun-20 20:32N 35°29' E 139°47'0 0.0
2016-Jun-20 19:32N 35°29' E 139°47'0 0.0
2016-Jun-20 18:32N 35°29' E 139°47'0 0.0
2016-Jun-20 17:29N 35°29' E 139°47'0 0.1
2016-Jun-20 16:32N 35°29' E 139°47'0 0.1
2016-Jun-20 15:32N 35°29' E 139°47'0 0.0
2016-Jun-20 14:32N 35°29' E 139°47'0 0.1
2016-Jun-20 13:32N 35°29' E 139°47'0 0.0
2016-Jun-20 12:32N 35°29' E 139°47'0 0.1
2016-Jun-20 11:32N 35°29' E 139°47'0 0.0
2016-Jun-20 10:32N 35°29' E 139°47'0 0.0
2016-Jun-20 09:32N 35°29' E 139°47'0 0.0
2016-Jun-20 08:32N 35°29' E 139°47'0 0.0
2016-Jun-20 07:32N 35°29' E 139°47'0 0.0
2016-Jun-20 06:29N 35°29' E 139°47'0 0.0
2016-Jun-20 05:32N 35°29' E 139°47'0 0.0
2016-Jun-20 04:32N 35°29' E 139°47'0 0.0
2016-Jun-20 03:32N 35°29' E 139°47'0 0.1
2016-Jun-20 02:32N 35°29' E 139°47'0 0.0
2016-Jun-20 01:32N 35°29' E 139°47'0 0.0
2016-Jun-20 00:32N 35°29' E 139°47'0 0.0
2016-Jun-19 23:32N 35°29' E 139°47'0 0.1
2016-Jun-19 22:32N 35°29' E 139°47'0 0.1
2016-Jun-19 21:29N 35°29' E 139°47'0 0.1
2016-Jun-19 20:32N 35°29' E 139°47'0 0.0
2016-Jun-19 19:32N 35°29' E 139°47'0 0.0
2016-Jun-19 18:32N 35°29' E 139°47'0 0.0
2016-Jun-19 17:32N 35°29' E 139°47'0 0.0
2016-Jun-19 16:32N 35°29' E 139°47'0 0.0
2016-Jun-19 15:32N 35°29' E 139°47'0 0.0
2016-Jun-19 14:32N 35°29' E 139°47'0 0.0
2016-Jun-19 13:32N 35°29' E 139°47'0 0.0
2016-Jun-19 12:32N 35°29' E 139°47'0 0.0
2016-Jun-19 11:32N 35°29' E 139°47'0 0.0
2016-Jun-19 10:32N 35°29' E 139°47'0 0.0
2016-Jun-19 09:32N 35°29' E 139°47'0 0.0
2016-Jun-19 08:32N 35°29' E 139°47'0 0.0
2016-Jun-19 07:32N 35°29' E 139°47'0 0.0
2016-Jun-19 06:32N 35°29' E 139°47'0 0.0
2016-Jun-19 05:32N 35°29' E 139°47'0 0.0
2016-Jun-19 04:32N 35°29' E 139°47'0 0.0
2016-Jun-19 03:32N 35°29' E 139°47'0 0.0
2016-Jun-19 02:32N 35°29' E 139°47'0 0.0
2016-Jun-19 01:29N 35°29' E 139°47'0 0.0
2016-Jun-19 00:32N 35°29' E 139°47'0 0.0
2016-Jun-18 23:32N 35°29' E 139°47'0 0.0
2016-Jun-18 22:32N 35°29' E 139°47'0 0.0
2016-Jun-18 21:32N 35°29' E 139°47'0 0.0
2016-Jun-18 20:32N 35°29' E 139°47'0 0.0
2016-Jun-18 19:32N 35°29' E 139°47'0 0.0
2016-Jun-18 18:29N 35°29' E 139°47'0 0.0
2016-Jun-18 17:32N 35°29' E 139°47'0 0.0
2016-Jun-18 16:32N 35°29' E 139°47'0 0.0
2016-Jun-18 15:32N 35°29' E 139°47'0 0.0
2016-Jun-18 14:32N 35°29' E 139°47'0 0.0
2016-Jun-18 13:32N 35°29' E 139°47'0 0.0
2016-Jun-18 12:32N 35°29' E 139°47'0 0.0
2016-Jun-18 11:32N 35°29' E 139°47'0 0.0
2016-Jun-18 10:32N 35°29' E 139°47'0 0.0
2016-Jun-18 09:32N 35°29' E 139°47'0 0.0
2016-Jun-18 08:32N 35°29' E 139°47'0 0.0
2016-Jun-18 07:32N 35°29' E 139°47'0 0.0
2016-Jun-18 06:32N 35°29' E 139°47'0 0.0
2016-Jun-18 05:32N 35°29' E 139°47'0 0.0
2016-Jun-18 04:32N 35°29' E 139°47'0 0.0
2016-Jun-18 03:32N 35°29' E 139°47'8 8.3
2016-Jun-18 02:33N 35°21' E 139°45'1010.1
2016-Jun-18 01:34N 35°12' E 139°47'1010.4
2016-Jun-18 00:34N 35°01' E 139°45'15 7.4
2016-Jun-17 22:33N 34°55' E 140°01'1010.1
2016-Jun-17 21:33N 35°01' E 140°11'10 9.9
2016-Jun-17 20:34N 35°06' E 140°21'9 9.1
2016-Jun-17 19:33N 35°13' E 140°28'1010.3
2016-Jun-17 18:33N 35°21' E 140°36'1110.5
2016-Jun-17 17:33N 35°30' E 140°44'1010.1
2016-Jun-17 16:34N 35°38' E 140°51'10 9.8
2016-Jun-17 15:33N 35°47' E 140°55'1010.1
2016-Jun-17 14:33N 35°57' E 140°56'10 9.8
2016-Jun-17 13:34N 36°07' E 140°57'10 9.8
2016-Jun-17 12:32N 36°17' E 140°58'  

Dump ship's entire track history